L M Clayton Airport
KOLF : now visible

Aeroporto :











RITROVATECI SU...

 
LOGIN :

Iscrizione | Disclaimer

   EN    FR    IT 

 









Sommario :    VFR   VFR Marginale   IFR   IFR Intensivo   IFR Molto Intensivo
Visibilità : 
Base nubi : 
>= 8 km
>= 3000ft
5 / 8 km
1000 / 3000 ft
1500m / 5 km
500 / 1000 ft
800 / 1500m
200 / 500 ft
< 800m
< 200 ft
Simboli :   Temporali  Nebbia  Neve Forte  Precipitazioni Forti  Vento > 20 kt






- Altitudine del aeroporto : 1986 ft


KOLF - L M Clayton

ULTIMO METAR :
  • 150453Z AUTO 29003KT 10SM OVC028 M13/M16 A2984 RMK AO2 SLP150 T11281156

METARs OBSOLETI :
  • 150429Z AUTO 30004KT 10SM FEW013 SCT021 BKN030 M13/M16 A2984 RMK AO2 T11331161
  • 150420Z AUTO 00000KT 10SM SCT013 BKN021 BKN030 M13/M16 A2984 RMK AO2 T11281161
  • 150410Z AUTO 00000KT 10SM BKN013 OVC021 M13/M16 A2985 RMK AO2 T11281161
  • 150353Z AUTO 00000KT 10SM OVC015 M12/M16 A2985 RMK AO2 SNE25 SLP153 P0000 T11221156
  • 150314Z AUTO 00000KT 4SM -SN SCT010 BKN015 OVC023 M12/M16 A2985 RMK AO2 P0000 T11221156
  • 150253Z AUTO 00000KT 9SM -SN OVC011 M12/M16 A2985 RMK AO2 SNB39 SLP153 P0000 60000 T11221156 58011
  • 150221Z AUTO 00000KT 10SM OVC014 M12/M16 A2986 RMK AO2 T11221161

TAF KOLF
Valido dal 15 a 00 ore il 16 a 00 ore UTC


142323Z 1500/1524 00000KT P6SM BKN035
FM150300 00000KT P6SM OVC020
FM151800 27007KT P6SM BKN045



MetMap, La meteo Aeronautica in un colpo d'occhio ! - Copyright ORBIFLY Dicembre 2007 - Disclaimer

ORBIFLY MET'MAP TEAM :

Programmazione e sviluppo : Alexandra Zaïnal
Concezione : Baudouin d'Aumeries
Aiuto per la programmazione : Marc-Olivier Méhu
Supporto tecnico e logistico : Manuel Goepfert
Aiuto per la traduzione : Arnaldo La Scala

Contatto : metmap@orbifly.com




FONTI E CREDITI :

   NOAA       Earth
Advisory